createdAt,value
2023-05-03T05:02:06.354Z,1014.10
2023-05-03T05:03:06.293Z,1014.12
2023-05-03T05:04:06.234Z,1014.10
2023-05-03T05:05:06.105Z,1014.08
2023-05-03T05:06:06.132Z,1014.11
2023-05-03T05:07:06.061Z,1014.15
2023-05-03T05:08:06.064Z,1014.11
2023-05-03T05:09:06.056Z,1014.10
2023-05-03T05:10:06.195Z,1014.10
2023-05-03T05:11:06.042Z,1014.08
2023-05-03T05:12:06.003Z,1014.04
2023-05-03T05:13:11.050Z,1014.07
2023-05-03T05:14:06.018Z,1014.08
2023-05-03T05:15:05.988Z,1014.04
2023-05-03T05:16:06.018Z,1014.01
2023-05-03T05:17:05.995Z,1014.06
2023-05-03T05:18:06.026Z,1014.03
2023-05-03T05:19:05.955Z,1014.03
2023-05-03T05:20:06.167Z,1014.02
2023-05-03T05:21:05.952Z,1014.03
2023-05-03T05:22:05.923Z,1014.03
2023-05-03T05:23:05.874Z,1014.02
2023-05-03T05:24:10.955Z,1013.99
2023-05-03T05:25:05.889Z,1013.97
2023-05-03T05:26:05.859Z,1014.05
2023-05-03T05:27:05.847Z,1014.06
2023-05-03T05:28:05.831Z,1014.09
2023-05-03T05:29:05.806Z,1014.09
2023-05-03T05:30:05.943Z,1014.02
2023-05-03T05:31:05.836Z,1014.06
2023-05-03T05:32:05.844Z,1014.12
2023-05-03T05:33:05.843Z,1014.13
2023-05-03T05:34:05.783Z,1014.15
2023-05-03T05:35:10.895Z,1014.15
2023-05-03T05:36:05.755Z,1014.19
2023-05-03T05:37:05.735Z,1014.16
2023-05-03T05:38:05.725Z,1014.18
2023-05-03T05:39:05.701Z,1014.21
2023-05-03T05:40:06.024Z,1014.24
2023-05-03T05:41:06.556Z,1014.23
2023-05-03T05:42:05.657Z,1014.24
2023-05-03T05:43:05.650Z,1014.23
2023-05-03T05:44:05.653Z,1014.19
2023-05-03T05:45:05.636Z,1014.21
2023-05-03T05:46:10.681Z,1014.24
2023-05-03T05:47:08.213Z,1014.21
2023-05-03T05:48:05.622Z,1014.22
2023-05-03T05:49:05.606Z,1014.17
2023-05-03T05:50:15.004Z,1014.19
2023-05-03T05:51:06.578Z,1014.30
2023-05-03T05:52:05.595Z,1014.25
2023-05-03T05:53:05.575Z,1014.28
2023-05-03T05:54:05.551Z,1014.31
2023-05-03T05:55:05.527Z,1014.31
2023-05-03T05:56:05.556Z,1014.34
2023-05-03T05:57:10.521Z,1014.27
2023-05-03T05:58:05.502Z,1014.25
2023-05-03T05:59:05.488Z,1014.20
2023-05-03T06:00:05.583Z,1014.26
2023-05-03T06:01:05.554Z,1014.28
2023-05-03T06:02:05.514Z,1014.21
2023-05-03T06:03:05.482Z,1014.27
2023-05-03T06:04:05.413Z,1014.23
2023-05-03T06:05:07.575Z,1014.19
2023-05-03T06:06:05.509Z,1014.20
2023-05-03T06:07:05.407Z,1014.13
2023-05-03T06:08:10.399Z,1014.18
2023-05-03T06:09:16.819Z,1014.08
2023-05-03T06:10:06.613Z,1014.12
2023-05-03T06:11:05.356Z,1014.13
2023-05-03T06:12:05.337Z,1014.16
2023-05-03T06:13:05.327Z,1014.18
2023-05-03T06:14:05.348Z,1014.20
2023-05-03T06:15:05.301Z,1014.19
2023-05-03T06:16:05.295Z,1014.15
2023-05-03T06:17:05.335Z,1014.10
2023-05-03T06:18:05.324Z,1014.09
2023-05-03T06:19:10.282Z,1014.13
2023-05-03T06:20:05.751Z,1014.10
2023-05-03T06:21:05.250Z,1014.10
2023-05-03T06:22:05.254Z,1014.10
2023-05-03T06:23:05.205Z,1014.08
2023-05-03T06:24:05.191Z,1014.11
2023-05-03T06:25:05.190Z,1014.10
2023-05-03T06:26:05.188Z,1014.09
2023-05-03T06:27:05.167Z,1014.02
2023-05-03T06:28:05.170Z,1014.06
2023-05-03T06:29:05.140Z,1014.06
2023-05-03T06:30:10.182Z,1014.04
2023-05-03T06:31:05.223Z,1014.04
2023-05-03T06:32:05.115Z,1014.10
2023-05-03T06:33:05.117Z,1014.08
2023-05-03T06:34:05.075Z,1014.08
2023-05-03T06:35:05.072Z,1014.07
2023-05-03T06:36:05.087Z,1014.11
2023-05-03T06:37:05.047Z,1014.11
2023-05-03T06:38:05.059Z,1014.06
2023-05-03T06:39:05.038Z,1014.08
2023-05-03T06:40:05.475Z,1014.14
2023-05-03T06:41:10.032Z,1014.08
2023-05-03T06:42:04.987Z,1014.04
2023-05-03T06:43:05.000Z,1014.01
2023-05-03T06:44:04.961Z,1013.95
2023-05-03T06:45:04.950Z,1013.97
2023-05-03T06:46:05.010Z,1013.97
2023-05-03T06:47:05.051Z,1014.04
2023-05-03T06:48:04.979Z,1014.11
2023-05-03T06:49:04.920Z,1014.14
2023-05-03T06:50:05.267Z,1014.15
2023-05-03T06:51:04.891Z,1014.17
2023-05-03T06:52:11.696Z,1014.12
2023-05-03T06:53:05.029Z,1014.13
2023-05-03T06:54:05.134Z,1014.21
2023-05-03T06:56:14.354Z,1014.25
2023-05-03T06:57:14.146Z,1014.23
2023-05-03T06:58:14.190Z,1014.21
2023-05-03T06:59:14.133Z,1014.15
2023-05-03T07:00:14.112Z,1014.25
2023-05-03T07:01:14.127Z,1014.23
2023-05-03T07:02:14.152Z,1014.14
2023-05-03T07:03:14.143Z,1014.17
2023-05-03T07:04:14.099Z,1014.16
2023-05-03T07:05:14.099Z,1014.22
2023-05-03T07:06:14.098Z,1014.27
2023-05-03T07:07:19.128Z,1014.26
2023-05-03T07:08:14.056Z,1014.23
2023-05-03T07:09:14.050Z,1014.29
2023-05-03T07:10:14.014Z,1014.27
2023-05-03T07:11:14.016Z,1014.26
2023-05-03T07:12:13.994Z,1014.22
2023-05-03T07:13:13.972Z,1014.27
2023-05-03T07:14:13.967Z,1014.19
2023-05-03T07:15:13.956Z,1014.22
2023-05-03T07:16:13.970Z,1014.20
2023-05-03T07:17:13.936Z,1014.21
2023-05-03T07:18:18.938Z,1014.23
2023-05-03T07:19:13.908Z,1014.21
2023-05-03T07:20:13.894Z,1014.18
2023-05-03T07:21:13.879Z,1014.19
2023-05-03T07:22:13.880Z,1014.16
2023-05-03T07:23:13.863Z,1014.20
2023-05-03T07:24:13.848Z,1014.12
2023-05-03T07:25:13.911Z,1014.21
2023-05-03T07:26:13.829Z,1014.19
2023-05-03T07:27:13.820Z,1014.15
2023-05-03T07:28:13.814Z,1014.11
2023-05-03T07:29:18.835Z,1014.07
2023-05-03T07:30:13.786Z,1014.10
2023-05-03T07:31:13.767Z,1014.02
2023-05-03T07:32:13.827Z,1014.07
2023-05-03T07:33:13.924Z,1014.07
2023-05-03T07:34:13.742Z,1014.01
2023-05-03T07:35:13.729Z,1014.04
2023-05-03T07:36:13.715Z,1014.03
2023-05-03T07:37:13.712Z,1014.05
2023-05-03T07:38:13.700Z,1014.04
2023-05-03T07:39:13.676Z,1014.00
2023-05-03T07:40:18.751Z,1013.98
2023-05-03T07:41:13.654Z,1013.97
2023-05-03T07:42:13.651Z,1013.99
2023-05-03T07:43:13.632Z,1014.03
2023-05-03T07:44:13.619Z,1013.99
2023-05-03T07:45:13.604Z,1013.96
2023-05-03T07:46:13.669Z,1014.02
2023-05-03T07:47:13.700Z,1014.02
2023-05-03T07:48:13.637Z,1014.03
2023-05-03T07:49:13.571Z,1014.02
2023-05-03T07:50:13.555Z,1014.04
2023-05-03T07:51:18.564Z,1014.04
2023-05-03T07:52:13.545Z,1014.12
2023-05-03T07:53:13.516Z,1014.03
2023-05-03T07:54:13.506Z,1014.06
2023-05-03T07:55:13.490Z,1014.06
2023-05-03T07:56:13.575Z,1013.96
2023-05-03T07:57:13.484Z,1014.02
2023-05-03T07:58:13.466Z,1014.04
2023-05-03T07:59:13.455Z,1014.03
2023-05-03T08:00:13.450Z,1014.06
2023-05-03T08:01:13.419Z,1014.01
2023-05-03T08:02:18.517Z,1014.03
2023-05-03T08:03:13.586Z,1014.09
2023-05-03T08:04:13.628Z,1014.07
2023-05-03T08:05:13.453Z,1014.10
2023-05-03T08:06:13.380Z,1014.07
2023-05-03T08:07:13.364Z,1014.04
2023-05-03T08:08:13.352Z,1014.12
2023-05-03T08:09:13.331Z,1014.04
2023-05-03T08:10:13.328Z,1014.05
2023-05-03T08:11:13.314Z,1014.11
2023-05-03T08:12:13.330Z,1014.03
2023-05-03T08:13:18.307Z,1014.13
2023-05-03T08:14:13.273Z,1014.14
2023-05-03T08:15:13.276Z,1014.16
2023-05-03T08:16:13.283Z,1014.16
2023-05-03T08:17:13.264Z,1014.09
2023-05-03T08:18:13.267Z,1014.14
2023-05-03T08:19:13.223Z,1014.15
2023-05-03T08:20:13.221Z,1014.09
2023-05-03T08:21:13.201Z,1014.08
2023-05-03T08:22:13.209Z,1014.08
2023-05-03T08:23:13.176Z,1014.15
2023-05-03T08:24:18.190Z,1014.11
2023-05-03T08:25:13.161Z,1014.13
2023-05-03T08:26:13.142Z,1014.14
2023-05-03T08:27:13.137Z,1014.11
2023-05-03T08:28:13.168Z,1014.13
2023-05-03T08:29:13.108Z,1014.16
2023-05-03T08:30:13.094Z,1014.00
2023-05-03T08:31:13.131Z,1014.09
2023-05-03T08:32:13.085Z,1014.09
2023-05-03T08:33:13.099Z,1014.04
2023-05-03T08:34:13.063Z,1013.97
2023-05-03T08:35:18.063Z,1014.05
2023-05-03T08:36:13.037Z,1014.05
2023-05-03T08:37:13.026Z,1014.10
2023-05-03T08:38:13.011Z,1014.04
2023-05-03T08:39:12.996Z,1014.00
2023-05-03T08:40:12.985Z,1014.00
2023-05-03T08:41:12.969Z,1014.04
2023-05-03T08:42:12.980Z,1014.01
2023-05-03T08:43:12.946Z,1014.01
2023-05-03T08:44:13.003Z,1013.94
2023-05-03T08:45:12.923Z,1014.05
2023-05-03T08:46:18.024Z,1013.93
2023-05-03T08:47:12.924Z,1014.01
2023-05-03T08:48:12.935Z,1014.04
2023-05-03T08:49:12.885Z,1013.98
2023-05-03T08:50:12.865Z,1014.09
2023-05-03T08:51:12.866Z,1014.07
2023-05-03T08:52:12.866Z,1014.06
2023-05-03T08:53:12.825Z,1014.02
2023-05-03T08:54:12.832Z,1014.07
2023-05-03T08:55:12.874Z,1014.02
2023-05-03T08:56:12.832Z,1014.09
2023-05-03T08:57:17.827Z,1014.09
2023-05-03T08:58:13.089Z,1014.01
2023-05-03T08:59:12.761Z,1014.06
2023-05-03T09:00:13.423Z,1014.06
2023-05-03T09:01:12.796Z,1014.08
2023-05-03T09:02:12.819Z,1014.11
2023-05-03T09:03:12.892Z,1014.10
2023-05-03T09:04:12.987Z,1014.00
2023-05-03T09:05:12.692Z,1014.10
2023-05-03T09:06:12.751Z,1013.99
2023-05-03T09:07:12.682Z,1014.12
2023-05-03T09:08:17.694Z,1014.07
2023-05-03T09:09:12.648Z,1014.01
2023-05-03T09:10:12.647Z,1014.08
2023-05-03T09:11:12.625Z,1013.97
2023-05-03T09:12:12.612Z,1013.94
2023-05-03T09:13:12.620Z,1013.98
2023-05-03T09:14:12.597Z,1014.00
2023-05-03T09:15:12.576Z,1014.03
2023-05-03T09:16:12.798Z,1014.01
2023-05-03T09:17:12.558Z,1014.04
2023-05-03T09:18:12.619Z,1013.98
2023-05-03T09:19:17.582Z,1014.03
2023-05-03T09:20:12.523Z,1014.05
2023-05-03T09:21:12.511Z,1013.98
2023-05-03T09:22:12.506Z,1013.99
2023-05-03T09:23:12.507Z,1013.99
2023-05-03T09:24:12.475Z,1013.96
2023-05-03T09:25:12.472Z,1013.92
2023-05-03T09:26:12.454Z,1013.94
2023-05-03T09:27:12.442Z,1013.96
2023-05-03T09:28:12.440Z,1013.98
2023-05-03T09:29:12.439Z,1013.96
2023-05-03T09:30:17.424Z,1014.01
2023-05-03T09:31:13.471Z,1014.01
2023-05-03T09:32:12.501Z,1013.96
2023-05-03T09:33:12.393Z,1013.99
2023-05-03T09:34:12.360Z,1013.98
2023-05-03T09:35:12.360Z,1013.91
2023-05-03T09:36:12.346Z,1013.87
2023-05-03T09:37:12.347Z,1013.90
2023-05-03T09:38:12.325Z,1013.92
2023-05-03T09:39:12.308Z,1013.93
2023-05-03T09:40:12.291Z,1013.83
2023-05-03T09:41:17.307Z,1013.82
2023-05-03T09:42:12.276Z,1013.82
2023-05-03T09:43:12.293Z,1013.85
2023-05-03T09:44:12.255Z,1013.79
2023-05-03T09:45:12.248Z,1013.88
2023-05-03T09:46:12.298Z,1013.78
2023-05-03T09:47:12.247Z,1013.73
2023-05-03T09:48:12.263Z,1013.76
2023-05-03T09:49:12.230Z,1013.74
2023-05-03T09:50:12.191Z,1013.77
2023-05-03T09:51:12.176Z,1013.75
2023-05-03T09:52:17.186Z,1013.75
2023-05-03T09:53:12.146Z,1013.71
2023-05-03T09:54:12.144Z,1013.68
2023-05-03T09:55:12.128Z,1013.65
2023-05-03T09:56:12.116Z,1013.71
2023-05-03T09:57:12.100Z,1013.73
2023-05-03T09:58:12.088Z,1013.71
2023-05-03T09:59:12.086Z,1013.73
2023-05-03T10:00:12.064Z,1013.70
2023-05-03T10:01:12.081Z,1013.67
2023-05-03T10:02:12.051Z,1013.61
2023-05-03T10:03:17.159Z,1013.64
2023-05-03T10:04:12.050Z,1013.63
2023-05-03T10:05:12.023Z,1013.62
2023-05-03T10:06:12.028Z,1013.65
2023-05-03T10:07:12.547Z,1013.66
2023-05-03T10:08:11.993Z,1013.63
2023-05-03T10:09:11.978Z,1013.61
2023-05-03T10:10:11.955Z,1013.67
2023-05-03T10:11:11.949Z,1013.61
2023-05-03T10:12:11.935Z,1013.56
2023-05-03T10:13:12.522Z,1013.60
2023-05-03T10:14:16.950Z,1013.53
2023-05-03T10:15:11.912Z,1013.58
2023-05-03T10:16:11.997Z,1013.61
2023-05-03T10:17:11.888Z,1013.53
2023-05-03T10:18:11.938Z,1013.61
2023-05-03T10:19:13.477Z,1013.44
2023-05-03T10:20:11.851Z,1013.55
2023-05-03T10:21:11.858Z,1013.45
2023-05-03T10:22:11.834Z,1013.45
2023-05-03T10:23:11.838Z,1013.38
2023-05-03T10:24:11.815Z,1013.35
2023-05-03T10:25:16.826Z,1013.38
2023-05-03T10:26:11.774Z,1013.50
2023-05-03T10:27:11.764Z,1013.43
2023-05-03T10:28:11.762Z,1013.52
2023-05-03T10:29:11.764Z,1013.56
2023-05-03T10:30:11.723Z,1013.49
2023-05-03T10:31:11.762Z,1013.38
2023-05-03T10:32:11.728Z,1013.37
2023-05-03T10:33:11.744Z,1013.50
2023-05-03T10:34:11.679Z,1013.59
2023-05-03T10:35:11.966Z,1013.38
2023-05-03T10:36:16.684Z,1013.25
2023-05-03T10:37:11.709Z,1013.29
2023-05-03T10:38:11.640Z,1013.42
2023-05-03T10:39:11.619Z,1013.48
2023-05-03T10:40:11.679Z,1013.38
2023-05-03T10:41:11.604Z,1013.48
2023-05-03T10:42:11.603Z,1013.34
2023-05-03T10:43:11.606Z,1013.29
2023-05-03T10:44:11.562Z,1013.35
2023-05-03T10:45:11.560Z,1013.38
2023-05-03T10:46:11.589Z,1013.31
2023-05-03T10:47:16.552Z,1013.32
2023-05-03T10:48:11.638Z,1013.34
2023-05-03T10:49:11.527Z,1013.35
2023-05-03T10:50:11.491Z,1013.33
2023-05-03T10:51:11.521Z,1013.27
2023-05-03T10:52:11.477Z,1013.42
2023-05-03T10:53:11.471Z,1013.41
2023-05-03T10:54:11.448Z,1013.26
2023-05-03T10:55:11.447Z,1013.17
2023-05-03T10:56:11.472Z,1013.19
2023-05-03T10:57:11.413Z,1013.24
2023-05-03T10:58:16.434Z,1013.42
2023-05-03T10:59:11.391Z,1013.36
2023-05-03T11:00:11.383Z,1013.44
2023-05-03T11:01:11.396Z,1013.32
2023-05-03T11:02:11.368Z,1013.29
2023-05-03T11:03:11.354Z,1013.26
2023-05-03T11:04:11.370Z,1013.40
2023-05-03T11:05:11.442Z,1013.46
2023-05-03T11:06:11.345Z,1013.29
2023-05-03T11:07:11.328Z,1013.16
2023-05-03T11:08:11.316Z,1013.31
2023-05-03T11:09:16.300Z,1013.38
2023-05-03T11:10:11.267Z,1013.36
2023-05-03T11:11:11.253Z,1013.30
2023-05-03T11:12:11.246Z,1013.17
2023-05-03T11:13:11.249Z,1013.20
2023-05-03T11:14:11.254Z,1013.47
2023-05-03T11:15:11.227Z,1013.45
2023-05-03T11:16:11.235Z,1013.48
2023-05-03T11:17:11.192Z,1013.36
2023-05-03T11:18:11.213Z,1013.40
2023-05-03T11:19:11.173Z,1013.29
2023-05-03T11:20:16.193Z,1013.08
2023-05-03T11:21:11.152Z,1013.07
2023-05-03T11:22:11.134Z,1013.12
2023-05-03T11:23:11.141Z,1013.06
2023-05-03T11:24:11.119Z,1012.99
2023-05-03T11:25:11.100Z,1013.19
2023-05-03T11:26:11.144Z,1013.07
2023-05-03T11:27:11.080Z,1013.16
2023-05-03T11:28:11.069Z,1013.13
2023-05-03T11:29:11.064Z,1012.99
2023-05-03T11:30:11.044Z,1012.89
2023-05-03T11:31:16.104Z,1012.85
2023-05-03T11:32:11.097Z,1012.87
2023-05-03T11:33:11.030Z,1012.79
2023-05-03T11:34:11.011Z,1013.01
2023-05-03T11:35:11.018Z,1012.97
2023-05-03T11:36:10.984Z,1012.82
2023-05-03T11:37:11.006Z,1012.86
2023-05-03T11:38:10.959Z,1012.88
2023-05-03T11:39:10.975Z,1012.91
2023-05-03T11:40:10.965Z,1012.92
2023-05-03T11:41:10.922Z,1013.00
2023-05-03T11:42:16.029Z,1012.91
2023-05-03T11:43:10.929Z,1012.93
2023-05-03T11:44:17.084Z,1012.97
2023-05-03T11:45:10.893Z,1012.85
2023-05-03T11:46:10.950Z,1012.97
2023-05-03T11:47:10.911Z,1012.93
2023-05-03T11:48:10.914Z,1012.97
2023-05-03T11:49:10.915Z,1012.86
2023-05-03T11:50:10.819Z,1012.96
2023-05-03T11:51:10.818Z,1012.96
2023-05-03T11:52:10.960Z,1012.93
2023-05-03T11:53:15.819Z,1012.94
2023-05-03T11:54:23.966Z,1012.94
2023-05-03T11:55:10.874Z,1012.76
2023-05-03T11:56:10.758Z,1012.67
2023-05-03T11:57:10.747Z,1012.96
2023-05-03T11:58:10.742Z,1012.95
2023-05-03T11:59:10.735Z,1012.90
2023-05-03T12:00:10.715Z,1012.96
2023-05-03T12:01:10.707Z,1012.89
2023-05-03T12:02:10.796Z,1012.80
2023-05-03T12:03:10.884Z,1012.95
2023-05-03T12:04:10.905Z,1012.99
2023-05-03T12:05:11.993Z,1012.88
2023-05-03T12:06:16.339Z,1012.92
2023-05-03T12:08:12.260Z,1012.98
2023-05-03T12:09:10.912Z,1012.91
2023-05-03T12:10:16.442Z,1012.89
2023-05-03T12:11:13.681Z,1012.85
2023-05-03T12:12:13.906Z,1012.89
2023-05-03T12:13:12.897Z,1012.88
2023-05-03T12:14:10.846Z,1012.93
2023-05-03T12:15:11.512Z,1012.93
2023-05-03T12:16:12.435Z,1012.82
2023-05-03T12:17:11.594Z,1012.90
2023-05-03T12:18:10.981Z,1012.81
2023-05-03T12:19:16.447Z,1012.79
2023-05-03T12:20:41.856Z,1012.79
2023-05-03T12:22:24.690Z,1012.76
2023-05-03T12:23:11.048Z,1012.75
2023-05-03T12:24:10.918Z,1012.69
2023-05-03T12:25:11.043Z,1012.64
2023-05-03T12:26:10.617Z,1012.69
2023-05-03T12:27:11.030Z,1012.68
2023-05-03T12:30:17.778Z,1012.61
2023-05-03T12:32:11.915Z,1012.40
2023-05-03T12:33:10.853Z,1012.29
2023-05-03T12:34:31.602Z,1012.26
2023-05-03T12:35:13.875Z,1012.23
2023-05-03T12:36:13.118Z,1012.26
2023-05-03T12:37:11.505Z,1012.27
2023-05-03T12:38:10.919Z,1012.29
2023-05-03T12:39:10.664Z,1012.26
2023-05-03T12:40:31.798Z,1012.22
2023-05-03T12:41:17.828Z,1012.24
2023-05-03T12:42:11.620Z,1012.24
2023-05-03T12:43:10.421Z,1012.19
2023-05-03T12:44:10.949Z,1012.17
2023-05-03T12:45:12.469Z,1012.22
2023-05-03T12:47:10.614Z,1012.16
2023-05-03T12:48:10.510Z,1012.15
2023-05-03T12:49:14.295Z,1012.13
2023-05-03T12:52:35.593Z,1012.17
2023-05-03T12:53:11.322Z,1012.15
2023-05-03T12:54:10.732Z,1012.01
2023-05-03T12:55:11.493Z,1012.02
2023-05-03T12:56:13.459Z,1012.12
2023-05-03T12:57:15.046Z,1012.14
2023-05-03T13:03:20.395Z,1012.04
2023-05-03T13:04:41.977Z,1011.97
2023-05-03T13:05:33.130Z,1011.97
2023-05-03T13:06:13.597Z,1011.99
2023-05-03T13:07:13.468Z,1012.00
2023-05-03T13:08:10.602Z,1011.97
2023-05-03T13:09:11.199Z,1011.83
2023-05-03T13:11:11.049Z,1011.90
2023-05-03T13:12:10.161Z,1011.92
2023-05-03T13:13:09.969Z,1011.87
2023-05-03T13:14:09.953Z,1011.89
2023-05-03T13:15:09.992Z,1011.79
2023-05-03T13:16:15.035Z,1011.79
2023-05-03T13:17:09.878Z,1011.76
2023-05-03T13:18:09.939Z,1011.83
2023-05-03T13:19:09.859Z,1011.76
2023-05-03T13:20:09.841Z,1011.75
2023-05-03T13:21:09.836Z,1011.73
2023-05-03T13:22:09.814Z,1011.74
2023-05-03T13:23:09.798Z,1011.73
2023-05-03T13:24:09.859Z,1011.70
2023-05-03T13:25:09.791Z,1011.70
2023-05-03T13:26:09.767Z,1011.67
2023-05-03T13:27:14.786Z,1011.67
2023-05-03T13:28:09.753Z,1011.62
2023-05-03T13:29:09.746Z,1011.56
2023-05-03T13:30:09.746Z,1011.59
2023-05-03T13:31:09.808Z,1011.53
2023-05-03T13:32:09.815Z,1011.51
2023-05-03T13:33:09.817Z,1011.49
2023-05-03T13:34:09.706Z,1011.52
2023-05-03T13:35:09.669Z,1011.46
2023-05-03T13:36:09.653Z,1011.46
2023-05-03T13:37:09.640Z,1011.54
2023-05-03T13:38:14.683Z,1011.55
2023-05-03T13:39:09.769Z,1011.38
2023-05-03T13:40:09.609Z,1011.48
2023-05-03T13:41:09.597Z,1011.31
2023-05-03T13:42:09.592Z,1011.39
2023-05-03T13:43:09.590Z,1011.35
2023-05-03T13:44:09.581Z,1011.34
2023-05-03T13:45:09.561Z,1011.32
2023-05-03T13:46:09.624Z,1011.33
2023-05-03T13:47:09.588Z,1011.36
2023-05-03T13:48:18.851Z,1011.30
2023-05-03T13:49:14.641Z,1011.30
2023-05-03T13:50:09.498Z,1011.28
2023-05-03T13:51:09.484Z,1011.24
2023-05-03T13:52:09.468Z,1011.18
2023-05-03T13:53:09.463Z,1011.19
2023-05-03T13:54:09.460Z,1011.16
2023-05-03T13:55:09.436Z,1011.19
2023-05-03T13:56:09.425Z,1011.15
2023-05-03T13:57:09.415Z,1011.16
2023-05-03T13:58:09.417Z,1011.16
2023-05-03T13:59:09.439Z,1011.09
2023-05-03T14:00:14.415Z,1011.11
2023-05-03T14:01:09.431Z,1011.14
2023-05-03T14:02:09.366Z,1011.06
2023-05-03T14:03:09.527Z,1011.06
2023-05-03T14:04:09.408Z,1011.04
2023-05-03T14:05:09.340Z,1011.10
2023-05-03T14:06:09.333Z,1011.06
2023-05-03T14:07:09.296Z,1011.06
2023-05-03T14:08:09.295Z,1011.14
2023-05-03T14:09:09.318Z,1011.13
2023-05-03T14:10:09.801Z,1011.13
2023-05-03T14:11:14.394Z,1011.13
2023-05-03T14:12:09.343Z,1011.13
2023-05-03T14:13:09.329Z,1011.10
2023-05-03T14:14:09.226Z,1011.05
2023-05-03T14:15:09.215Z,1011.00
2023-05-03T14:16:09.652Z,1011.07
2023-05-03T14:17:09.254Z,1011.07
2023-05-03T14:18:09.221Z,1011.03
2023-05-03T14:19:09.234Z,1010.98
2023-05-03T14:20:09.273Z,1011.04
2023-05-03T14:21:09.219Z,1010.94
2023-05-03T14:22:14.156Z,1010.97
2023-05-03T14:23:09.116Z,1010.97
2023-05-03T14:24:09.194Z,1010.93
2023-05-03T14:25:09.100Z,1010.96
2023-05-03T14:26:09.082Z,1010.98
2023-05-03T14:27:09.084Z,1010.99
2023-05-03T14:28:09.067Z,1010.93
2023-05-03T14:29:09.070Z,1010.87
2023-05-03T14:30:09.037Z,1010.89
2023-05-03T14:31:16.680Z,1010.95
2023-05-03T14:32:09.024Z,1010.92
2023-05-03T14:33:14.071Z,1010.91
2023-05-03T14:34:09.027Z,1010.88
2023-05-03T14:35:09.036Z,1010.93
2023-05-03T14:36:08.977Z,1010.91
2023-05-03T14:37:09.155Z,1010.87
2023-05-03T14:38:08.968Z,1010.91
2023-05-03T14:39:08.946Z,1010.84
2023-05-03T14:40:09.179Z,1010.83
2023-05-03T14:41:08.914Z,1010.79
2023-05-03T14:42:09.016Z,1010.74
2023-05-03T14:43:08.950Z,1010.70
2023-05-03T14:44:13.925Z,1010.77
2023-05-03T14:45:10.980Z,1010.67
2023-05-03T14:46:08.998Z,1010.69
2023-05-03T14:47:08.929Z,1010.69
2023-05-03T14:48:08.876Z,1010.70
2023-05-03T14:49:08.833Z,1010.64
2023-05-03T14:50:08.820Z,1010.69
2023-05-03T14:51:08.885Z,1010.67
2023-05-03T14:52:08.915Z,1010.68
2023-05-03T14:53:08.782Z,1010.67
2023-05-03T14:54:08.780Z,1010.71
2023-05-03T14:55:13.782Z,1010.73
2023-05-03T14:56:08.767Z,1010.71
2023-05-03T14:57:08.739Z,1010.69
2023-05-03T14:58:08.780Z,1010.72
2023-05-03T14:59:08.722Z,1010.66
2023-05-03T15:00:08.792Z,1010.71
2023-05-03T15:01:08.732Z,1010.64
2023-05-03T15:02:08.708Z,1010.63
2023-05-03T15:03:08.878Z,1010.66
2023-05-03T15:04:08.702Z,1010.55
2023-05-03T15:05:08.655Z,1010.60
2023-05-03T15:06:13.676Z,1010.56
2023-05-03T15:07:08.631Z,1010.57
2023-05-03T15:08:08.619Z,1010.58
2023-05-03T15:09:08.648Z,1010.59
2023-05-03T15:10:09.143Z,1010.65
2023-05-03T15:11:08.582Z,1010.67
2023-05-03T15:12:08.565Z,1010.56
2023-05-03T15:13:08.712Z,1010.55
2023-05-03T15:14:08.642Z,1010.60
2023-05-03T15:15:08.537Z,1010.61
2023-05-03T15:16:08.527Z,1010.56
2023-05-03T15:17:13.734Z,1010.56
2023-05-03T15:18:08.717Z,1010.60
2023-05-03T15:19:08.522Z,1010.51
2023-05-03T15:20:08.491Z,1010.63
2023-05-03T15:21:08.472Z,1010.50
2023-05-03T15:22:08.481Z,1010.51
2023-05-03T15:23:08.509Z,1010.52
2023-05-03T15:24:08.455Z,1010.50
2023-05-03T15:25:08.426Z,1010.52
2023-05-03T15:26:08.417Z,1010.55
2023-05-03T15:27:08.398Z,1010.54
2023-05-03T15:28:13.419Z,1010.60
2023-05-03T15:29:08.492Z,1010.54
2023-05-03T15:30:08.550Z,1010.58
2023-05-03T15:31:08.412Z,1010.62
2023-05-03T15:32:08.350Z,1010.58
2023-05-03T15:33:08.377Z,1010.55
2023-05-03T15:34:08.328Z,1010.48
2023-05-03T15:35:08.317Z,1010.59
2023-05-03T15:36:08.383Z,1010.53
2023-05-03T15:37:08.286Z,1010.46
2023-05-03T15:38:08.309Z,1010.56
2023-05-03T15:39:13.291Z,1010.46
2023-05-03T15:40:08.252Z,1010.50
2023-05-03T15:41:08.243Z,1010.45
2023-05-03T15:42:08.240Z,1010.47
2023-05-03T15:43:08.230Z,1010.41
2023-05-03T15:44:08.232Z,1010.46
2023-05-03T15:45:08.193Z,1010.45
2023-05-03T15:46:08.252Z,1010.46
2023-05-03T15:47:08.169Z,1010.46
2023-05-03T15:48:08.250Z,1010.47
2023-05-03T15:49:08.154Z,1010.37
2023-05-03T15:50:13.206Z,1010.42
2023-05-03T15:51:08.122Z,1010.32
2023-05-03T15:52:09.159Z,1010.36
2023-05-03T15:53:08.112Z,1010.26
2023-05-03T15:54:08.173Z,1010.37
2023-05-03T15:55:08.110Z,1010.29
2023-05-03T15:56:08.066Z,1010.30
2023-05-03T15:57:08.057Z,1010.31
2023-05-03T15:58:08.050Z,1010.33
2023-05-03T15:59:08.051Z,1010.29
2023-05-03T16:00:08.196Z,1010.21
2023-05-03T16:01:13.067Z,1010.27
2023-05-03T16:02:08.056Z,1010.32
2023-05-03T16:03:08.105Z,1010.25
2023-05-03T16:04:07.983Z,1010.34
2023-05-03T16:05:07.984Z,1010.32
2023-05-03T16:06:07.990Z,1010.31
2023-05-03T16:07:07.943Z,1010.30
2023-05-03T16:08:07.955Z,1010.27
2023-05-03T16:09:07.928Z,1010.26
2023-05-03T16:10:08.177Z,1010.26
2023-05-03T16:11:07.961Z,1010.30
2023-05-03T16:12:13.248Z,1010.29
2023-05-03T16:13:07.973Z,1010.24
2023-05-03T16:14:07.881Z,1010.25
2023-05-03T16:15:07.993Z,1010.22
2023-05-03T16:16:07.925Z,1010.19
2023-05-03T16:17:07.842Z,1010.17
2023-05-03T16:18:07.928Z,1010.19
2023-05-03T16:19:07.879Z,1010.16
2023-05-03T16:20:07.811Z,1010.13
2023-05-03T16:21:07.796Z,1010.21
2023-05-03T16:22:07.791Z,1010.15
2023-05-03T16:23:12.798Z,1010.12
2023-05-03T16:24:07.780Z,1010.20
2023-05-03T16:25:07.860Z,1010.11
2023-05-03T16:26:07.760Z,1010.12
2023-05-03T16:27:07.731Z,1010.17
2023-05-03T16:28:07.711Z,1010.15
2023-05-03T16:29:07.704Z,1010.08
2023-05-03T16:30:07.698Z,1010.09
2023-05-03T16:31:07.787Z,1010.08
2023-05-03T16:32:07.717Z,1010.04
2023-05-03T16:33:07.682Z,1010.03
2023-05-03T16:34:12.668Z,1010.02
2023-05-03T16:35:07.675Z,1010.01
2023-05-03T16:36:07.638Z,1010.07
2023-05-03T16:37:07.683Z,1010.02
2023-05-03T16:38:07.605Z,1009.99
2023-05-03T16:39:07.586Z,1010.01
2023-05-03T16:40:07.732Z,1010.01
2023-05-03T16:41:07.580Z,1009.96
2023-05-03T16:42:07.576Z,1009.98
2023-05-03T16:43:08.424Z,1009.97
2023-05-03T16:44:07.550Z,1009.95
2023-05-03T16:45:12.535Z,1009.90
2023-05-03T16:46:07.534Z,1009.96
2023-05-03T16:47:07.506Z,1009.85
2023-05-03T16:48:08.376Z,1009.88
2023-05-03T16:49:07.475Z,1009.97
2023-05-03T16:50:07.834Z,1009.89
2023-05-03T16:51:07.475Z,1009.85
2023-05-03T16:52:07.442Z,1009.92
2023-05-03T16:53:07.423Z,1009.95
2023-05-03T16:54:07.502Z,1009.98
2023-05-03T16:55:07.412Z,1009.95
2023-05-03T16:56:12.418Z,1009.97
2023-05-03T16:57:07.394Z,1009.86
2023-05-03T16:58:07.400Z,1009.85
2023-05-03T16:59:07.395Z,1009.94
2023-05-03T17:00:07.506Z,1009.93
2023-05-03T17:01:07.365Z,1009.92
2023-05-03T17:02:07.394Z,1009.88
2023-05-03T17:03:07.379Z,1009.94
2023-05-03T17:04:07.362Z,1009.94
2023-05-03T17:05:07.286Z,1009.91
2023-05-03T17:06:07.346Z,1009.97
2023-05-03T17:07:12.288Z,1009.92
2023-05-03T17:08:07.251Z,1009.98
2023-05-03T17:09:07.260Z,1009.95
2023-05-03T17:10:07.426Z,1009.98
2023-05-03T17:11:07.219Z,1009.99
2023-05-03T17:12:07.292Z,1009.89
2023-05-03T17:13:07.238Z,1009.97
2023-05-03T17:14:07.296Z,1009.96
2023-05-03T17:15:07.185Z,1010.03
2023-05-03T17:16:07.244Z,1009.93
2023-05-03T17:17:07.284Z,1009.95
2023-05-03T17:18:12.297Z,1009.96
2023-05-03T17:19:07.141Z,1009.95
2023-05-03T17:20:07.274Z,1009.93
2023-05-03T17:21:07.108Z,1009.99
2023-05-03T17:22:07.105Z,1009.99